createdAt,value
2017-03-27T00:00:34.326Z,3.72
2017-03-27T00:01:34.311Z,3.72
2017-03-27T00:02:34.306Z,3.75
2017-03-27T00:03:34.291Z,3.78
2017-03-27T00:04:34.277Z,3.75
2017-03-27T00:05:34.265Z,3.72
2017-03-27T00:06:33.950Z,3.7
2017-03-27T00:07:34.241Z,3.68
2017-03-27T00:08:34.234Z,3.66
2017-03-27T00:09:34.211Z,3.75
2017-03-27T00:10:34.199Z,3.69
2017-03-27T00:11:34.190Z,3.69
2017-03-27T00:12:34.175Z,3.73
2017-03-27T00:13:34.169Z,3.72
2017-03-27T00:14:34.149Z,3.69
2017-03-27T00:15:34.139Z,3.68
2017-03-27T00:16:34.121Z,3.65
2017-03-27T00:17:34.110Z,3.68
2017-03-27T00:18:34.099Z,3.65
2017-03-27T00:19:34.086Z,3.61
2017-03-27T00:20:34.071Z,3.6
2017-03-27T00:21:34.063Z,3.57
2017-03-27T00:22:34.045Z,3.6
2017-03-27T00:23:34.037Z,3.6
2017-03-27T00:24:34.019Z,3.65
2017-03-27T00:25:34.007Z,3.57
2017-03-27T00:26:33.994Z,3.66
2017-03-27T00:27:33.981Z,3.52
2017-03-27T00:28:33.971Z,3.61
2017-03-27T00:29:33.970Z,3.51
2017-03-27T00:30:33.943Z,3.51
2017-03-27T00:31:33.929Z,3.57
2017-03-27T00:32:33.917Z,3.48
2017-03-27T00:33:33.904Z,3.42
2017-03-27T00:34:33.899Z,3.43
2017-03-27T00:35:33.878Z,3.47
2017-03-27T00:36:33.869Z,3.4
2017-03-27T00:37:33.855Z,3.5
2017-03-27T00:38:33.845Z,3.48
2017-03-27T00:39:33.834Z,3.35
2017-03-27T00:40:33.814Z,3.36
2017-03-27T00:41:33.802Z,3.35
2017-03-27T00:42:33.790Z,3.45
2017-03-27T00:43:33.778Z,3.32
2017-03-27T00:44:33.763Z,3.43
2017-03-27T00:45:33.755Z,3.39
2017-03-27T00:46:33.747Z,3.33
2017-03-27T00:47:33.730Z,3.26
2017-03-27T00:48:33.719Z,3.32
2017-03-27T00:49:33.699Z,3.33
2017-03-27T00:50:33.685Z,3.29
2017-03-27T00:51:33.370Z,3.33
2017-03-27T00:52:33.357Z,3.21
2017-03-27T00:53:33.651Z,3.32
2017-03-27T00:54:33.633Z,3.29
2017-03-27T00:55:33.620Z,3.31
2017-03-27T00:56:33.615Z,3.23
2017-03-27T00:57:33.598Z,3.26
2017-03-27T00:58:33.588Z,3.32
2017-03-27T00:59:33.569Z,3.28
2017-03-27T01:00:33.558Z,3.32
2017-03-27T01:01:33.545Z,3.2
2017-03-27T01:02:33.531Z,3.28
2017-03-27T01:03:33.546Z,3.24
2017-03-27T01:04:33.502Z,3.23
2017-03-27T01:05:33.488Z,3.21
2017-03-27T01:06:33.174Z,3.24
2017-03-27T01:07:33.463Z,3.18
2017-03-27T01:08:33.458Z,3.18
2017-03-27T01:09:33.438Z,3.24
2017-03-27T01:10:33.425Z,3.21
2017-03-27T01:11:33.416Z,3.2
2017-03-27T01:12:33.603Z,3.18
2017-03-27T01:13:33.387Z,3.15
2017-03-27T01:14:33.977Z,3.21
2017-03-27T01:15:33.361Z,3.2
2017-03-27T01:16:33.347Z,3.18
2017-03-27T01:17:33.032Z,3.17
2017-03-27T01:18:34.131Z,3.2
2017-03-27T01:19:33.314Z,3.13
2017-03-27T01:20:32.990Z,3.2
2017-03-27T01:21:33.284Z,3.05
2017-03-27T01:22:33.269Z,3.08
2017-03-27T01:23:33.263Z,3.11
2017-03-27T01:24:32.939Z,3.05
2017-03-27T01:25:33.230Z,3.11
2017-03-27T01:26:32.918Z,3.06
2017-03-27T01:27:32.900Z,3.13
2017-03-27T01:28:33.199Z,3.06
2017-03-27T01:29:33.181Z,3.14
2017-03-27T01:30:33.191Z,3.14
2017-03-27T01:31:33.151Z,3.14
2017-03-27T01:32:33.143Z,3.05
2017-03-27T01:33:33.128Z,2.99
2017-03-27T01:34:33.111Z,3.03
2017-03-27T01:35:33.103Z,3.03
2017-03-27T01:36:33.090Z,3.05
2017-03-27T01:37:33.076Z,3.02
2017-03-27T01:38:32.761Z,3.05
2017-03-27T01:39:33.078Z,3.05
2017-03-27T01:40:33.033Z,3.06
2017-03-27T01:41:32.717Z,3
2017-03-27T01:42:33.004Z,3.03
2017-03-27T01:43:33.022Z,3.08
2017-03-27T01:44:32.991Z,3.08
2017-03-27T01:45:32.965Z,3.03
2017-03-27T01:46:32.954Z,3.1
2017-03-27T01:47:33.298Z,3.03
2017-03-27T01:48:32.933Z,3.03
2017-03-27T01:49:32.914Z,3.03
2017-03-27T01:50:32.904Z,3.1
2017-03-27T01:51:32.889Z,3.03
2017-03-27T01:52:32.876Z,3.02
2017-03-27T01:53:32.865Z,3.06
2017-03-27T01:54:32.545Z,2.92
2017-03-27T01:55:32.834Z,2.97
2017-03-27T01:56:32.819Z,2.95
2017-03-27T01:57:32.809Z,2.92
2017-03-27T01:58:32.800Z,2.92
2017-03-27T01:59:32.477Z,2.96
2017-03-27T02:00:32.771Z,2.92
2017-03-27T02:01:32.753Z,2.95
2017-03-27T02:02:32.743Z,2.96
2017-03-27T02:03:32.426Z,2.96
2017-03-27T02:04:32.716Z,3.02
2017-03-27T02:05:32.702Z,2.93
2017-03-27T02:06:32.695Z,2.95
2017-03-27T02:07:32.683Z,2.99
2017-03-27T02:08:32.662Z,3.05
2017-03-27T02:09:32.651Z,3.06
2017-03-27T02:10:32.632Z,2.95
2017-03-27T02:11:32.621Z,2.96
2017-03-27T02:12:32.607Z,2.9
2017-03-27T02:13:32.298Z,3.06
2017-03-27T02:14:32.581Z,2.97
2017-03-27T02:15:32.263Z,3.06
2017-03-27T02:16:32.553Z,3
2017-03-27T02:17:32.540Z,2.96
2017-03-27T02:18:32.534Z,2.96
2017-03-27T02:19:32.516Z,2.97
2017-03-27T02:20:32.500Z,2.99
2017-03-27T02:21:32.490Z,2.87
2017-03-27T02:22:32.474Z,2.92
2017-03-27T02:23:32.463Z,2.84
2017-03-27T02:24:32.451Z,2.82
2017-03-27T02:25:32.437Z,2.84
2017-03-27T02:26:32.421Z,2.81
2017-03-27T02:27:32.410Z,2.85
2017-03-27T02:28:32.400Z,2.74
2017-03-27T02:29:32.389Z,2.81
2017-03-27T02:30:32.369Z,2.81
2017-03-27T02:31:32.356Z,2.81
2017-03-27T02:32:32.344Z,2.71
2017-03-27T02:33:32.327Z,2.66
2017-03-27T02:34:32.314Z,2.72
2017-03-27T02:35:32.302Z,2.69
2017-03-27T02:36:32.287Z,2.72
2017-03-27T02:37:32.274Z,2.69
2017-03-27T02:38:32.270Z,2.75
2017-03-27T02:39:32.253Z,2.77
2017-03-27T02:40:32.235Z,2.72
2017-03-27T02:41:32.221Z,2.72
2017-03-27T02:42:32.217Z,2.77
2017-03-27T02:43:32.204Z,2.63
2017-03-27T02:44:32.181Z,2.81
2017-03-27T02:45:32.167Z,2.72
2017-03-27T02:46:32.152Z,2.69
2017-03-27T02:47:32.149Z,2.75
2017-03-27T02:48:32.129Z,2.66
2017-03-27T02:49:32.112Z,2.67
2017-03-27T02:50:32.100Z,2.69
2017-03-27T02:51:32.088Z,2.72
2017-03-27T02:52:32.073Z,2.67
2017-03-27T02:53:32.062Z,2.64
2017-03-27T02:54:32.047Z,2.67
2017-03-27T02:55:31.735Z,2.66
2017-03-27T02:56:32.018Z,2.69
2017-03-27T02:57:32.006Z,2.67
2017-03-27T02:58:31.991Z,2.54
2017-03-27T02:59:31.984Z,2.63
2017-03-27T03:00:31.964Z,2.6
2017-03-27T03:01:31.953Z,2.6
2017-03-27T03:02:31.938Z,2.57
2017-03-27T03:03:31.930Z,2.57
2017-03-27T03:04:31.935Z,2.57
2017-03-27T03:05:31.899Z,2.54
2017-03-27T03:06:31.884Z,2.56
2017-03-27T03:07:31.912Z,2.48
2017-03-27T03:08:31.859Z,2.61
2017-03-27T03:09:31.846Z,2.59
2017-03-27T03:10:31.830Z,2.56
2017-03-27T03:11:31.514Z,2.61
2017-03-27T03:12:31.803Z,2.57
2017-03-27T03:13:31.487Z,2.56
2017-03-27T03:14:31.775Z,2.66
2017-03-27T03:15:31.765Z,2.56
2017-03-27T03:16:31.748Z,2.48
2017-03-27T03:17:31.738Z,2.49
2017-03-27T03:18:31.720Z,2.53
2017-03-27T03:19:31.709Z,2.54
2017-03-27T03:20:31.695Z,2.53
2017-03-27T03:21:31.687Z,2.54
2017-03-27T03:22:31.680Z,2.42
2017-03-27T03:23:31.354Z,2.39
2017-03-27T03:24:31.637Z,2.49
2017-03-27T03:25:31.629Z,2.39
2017-03-27T03:26:31.612Z,2.39
2017-03-27T03:27:31.605Z,2.43
2017-03-27T03:28:31.587Z,2.41
2017-03-27T03:29:31.572Z,2.41
2017-03-27T03:30:31.557Z,2.36
2017-03-27T03:31:31.546Z,2.38
2017-03-27T03:32:31.531Z,2.36
2017-03-27T03:33:31.517Z,2.39
2017-03-27T03:34:31.507Z,2.38
2017-03-27T03:35:31.489Z,2.39
2017-03-27T03:36:31.473Z,2.27
2017-03-27T03:37:31.469Z,2.3
2017-03-27T03:38:31.448Z,2.36
2017-03-27T03:39:31.435Z,2.25
2017-03-27T03:40:31.121Z,2.38
2017-03-27T03:41:31.104Z,2.31
2017-03-27T03:42:31.091Z,2.38
2017-03-27T03:43:31.381Z,2.38
2017-03-27T03:44:31.062Z,2.35
2017-03-27T03:45:31.351Z,2.25
2017-03-27T03:46:31.339Z,2.35
2017-03-27T03:47:31.330Z,2.31
2017-03-27T03:48:31.313Z,2.2
2017-03-27T03:49:31.297Z,2.28
2017-03-27T03:50:31.281Z,2.36
2017-03-27T03:51:31.268Z,2.34
2017-03-27T03:52:31.254Z,2.31
2017-03-27T03:53:30.660Z,2.34
2017-03-27T03:54:31.227Z,2.36
2017-03-27T03:55:31.217Z,2.39
2017-03-27T03:56:30.902Z,2.35
2017-03-27T03:57:30.883Z,2.38
2017-03-27T03:58:31.186Z,2.36
2017-03-27T03:59:30.857Z,2.31
2017-03-27T04:00:30.840Z,2.3
2017-03-27T04:01:30.828Z,2.2
2017-03-27T04:02:31.122Z,2.27
2017-03-27T04:03:31.104Z,2.24
2017-03-27T04:04:31.092Z,2.31
2017-03-27T04:05:31.124Z,2.35
2017-03-27T04:06:31.061Z,2.31
2017-03-27T04:07:31.049Z,2.34
2017-03-27T04:08:31.041Z,2.35
2017-03-27T04:09:31.021Z,2.36
2017-03-27T04:10:31.011Z,2.28
2017-03-27T04:11:30.997Z,2.38
2017-03-27T04:12:30.982Z,2.35
2017-03-27T04:13:30.968Z,2.21
2017-03-27T04:14:30.980Z,2.27
2017-03-27T04:15:30.938Z,2.23
2017-03-27T04:16:30.926Z,2.34
2017-03-27T04:17:30.910Z,2.3
2017-03-27T04:18:30.901Z,2.23
2017-03-27T04:19:30.884Z,2.31
2017-03-27T04:20:30.869Z,2.34
2017-03-27T04:21:30.854Z,2.3
2017-03-27T04:22:30.841Z,2.36
2017-03-27T04:23:30.837Z,2.3
2017-03-27T04:24:30.820Z,2.31
2017-03-27T04:25:30.807Z,2.31
2017-03-27T04:26:30.784Z,2.2
2017-03-27T04:27:30.796Z,2.36
2017-03-27T04:28:30.455Z,2.31
2017-03-27T04:29:30.746Z,2.31
2017-03-27T04:30:30.730Z,2.23
2017-03-27T04:31:30.720Z,2.35
2017-03-27T04:32:30.702Z,2.31
2017-03-27T04:33:30.694Z,2.28
2017-03-27T04:34:30.683Z,2.35
2017-03-27T04:35:30.662Z,2.28
2017-03-27T04:36:30.647Z,2.36
2017-03-27T04:37:30.644Z,2.38
2017-03-27T04:38:30.320Z,2.28
2017-03-27T04:39:30.305Z,2.35
2017-03-27T04:40:30.594Z,2.31
2017-03-27T04:41:30.583Z,2.36
2017-03-27T04:42:30.565Z,2.43
2017-03-27T04:43:30.555Z,2.45
2017-03-27T04:44:30.543Z,2.35
2017-03-27T04:45:30.527Z,2.38
2017-03-27T04:46:30.510Z,2.38
2017-03-27T04:47:30.498Z,2.36
2017-03-27T04:48:30.485Z,2.46
2017-03-27T04:49:30.471Z,2.42
2017-03-27T04:50:30.455Z,2.38
2017-03-27T04:51:30.138Z,2.41
2017-03-27T04:52:30.426Z,2.43
2017-03-27T04:53:30.415Z,2.49
2017-03-27T04:54:30.402Z,2.49
2017-03-27T04:55:30.386Z,2.53
2017-03-27T04:56:30.376Z,2.49
2017-03-27T04:57:30.053Z,2.52
2017-03-27T04:58:30.347Z,2.56
2017-03-27T04:59:30.331Z,2.53
2017-03-27T05:00:30.014Z,2.59
2017-03-27T05:01:30.302Z,2.53
2017-03-27T05:02:30.289Z,2.57
2017-03-27T05:03:30.281Z,2.49
2017-03-27T05:04:30.270Z,2.56
2017-03-27T05:05:30.248Z,2.66
2017-03-27T05:06:30.242Z,2.64
2017-03-27T05:07:30.222Z,2.74
2017-03-27T05:08:30.214Z,2.71
2017-03-27T05:09:30.199Z,2.75
2017-03-27T05:10:30.182Z,2.82
2017-03-27T05:11:30.168Z,2.78
2017-03-27T05:12:30.162Z,2.89
2017-03-27T05:13:30.145Z,2.82
2017-03-27T05:14:30.126Z,2.92
2017-03-27T05:15:30.115Z,2.87
2017-03-27T05:16:30.097Z,2.9
2017-03-27T05:17:30.085Z,3.03
2017-03-27T05:18:29.774Z,3.2
2017-03-27T05:19:30.062Z,3.17
2017-03-27T05:20:30.048Z,3.29
2017-03-27T05:21:30.032Z,3.43
2017-03-27T05:22:30.019Z,3.57
2017-03-27T05:23:30.011Z,3.75
2017-03-27T05:24:30.011Z,3.86
2017-03-27T05:25:29.980Z,4.06
2017-03-27T05:26:29.967Z,4.23
2017-03-27T05:27:29.954Z,4.4
2017-03-27T05:28:29.945Z,4.66
2017-03-27T05:29:29.932Z,4.8
2017-03-27T05:30:29.922Z,5.1
2017-03-27T05:31:29.618Z,5.31
2017-03-27T05:32:29.894Z,5.58
2017-03-27T05:33:29.881Z,5.74
2017-03-27T05:34:29.873Z,5.97
2017-03-27T05:35:29.863Z,6.19
2017-03-27T05:36:29.855Z,6.4
2017-03-27T05:37:29.839Z,6.69
2017-03-27T05:38:29.829Z,6.95
2017-03-27T05:39:29.825Z,7.2
2017-03-27T05:40:29.810Z,7.39
2017-03-27T05:41:29.798Z,7.52
2017-03-27T05:42:29.791Z,7.74
2017-03-27T05:43:29.785Z,8.01
2017-03-27T05:44:29.770Z,8.26
2017-03-27T05:45:29.765Z,8.52
2017-03-27T05:46:29.754Z,8.74
2017-03-27T05:47:29.745Z,9.04
2017-03-27T05:48:29.743Z,9.21
2017-03-27T05:49:29.726Z,9.36
2017-03-27T05:50:29.727Z,9.72
2017-03-27T05:51:29.717Z,9.83
2017-03-27T05:52:29.703Z,10.09
2017-03-27T05:53:29.700Z,10.23
2017-03-27T05:54:29.691Z,10.47
2017-03-27T05:55:29.685Z,10.71
2017-03-27T05:56:30.879Z,10.96
2017-03-27T05:57:29.671Z,11.24
2017-03-27T05:58:29.666Z,11.27
2017-03-27T05:59:29.663Z,11.49
2017-03-27T06:00:29.352Z,11.72
2017-03-27T06:01:29.341Z,11.91
2017-03-27T06:02:29.651Z,12.02
2017-03-27T06:03:29.642Z,12.29
2017-03-27T06:04:29.633Z,12.42
2017-03-27T06:05:29.628Z,12.72
2017-03-27T06:06:29.621Z,12.79
2017-03-27T06:07:29.619Z,13.03
2017-03-27T06:08:29.612Z,13.19
2017-03-27T06:09:29.611Z,13.42
2017-03-27T06:10:29.606Z,13.64
2017-03-27T06:11:29.599Z,13.81
2017-03-27T06:12:29.595Z,14.04
2017-03-27T06:13:29.594Z,14.22
2017-03-27T06:14:29.590Z,14.24
2017-03-27T06:15:29.590Z,14.47
2017-03-27T06:16:29.581Z,14.55
2017-03-27T06:17:29.281Z,14.7
2017-03-27T06:18:29.577Z,14.92
2017-03-27T06:19:29.574Z,15.23
2017-03-27T06:20:29.591Z,15.35
2017-03-27T06:21:29.572Z,15.51
2017-03-27T06:22:29.566Z,15.75
2017-03-27T06:23:29.567Z,15.9
2017-03-27T06:24:29.566Z,16.09
2017-03-27T06:25:29.559Z,16.21
2017-03-27T06:26:29.601Z,16.43
2017-03-27T06:27:29.259Z,16.57
2017-03-27T06:28:29.557Z,16.78
2017-03-27T06:29:29.560Z,16.91
2017-03-27T06:30:29.554Z,17.11
2017-03-27T06:31:29.248Z,17.15
2017-03-27T06:32:29.263Z,17.31
2017-03-27T06:33:29.558Z,17.52
2017-03-27T06:34:29.560Z,17.66
2017-03-27T06:35:29.555Z,17.84
2017-03-27T06:36:29.557Z,17.92
2017-03-27T06:37:29.553Z,18.11
2017-03-27T06:38:29.567Z,18.18
2017-03-27T06:39:29.567Z,18.3
2017-03-27T06:40:29.553Z,18.45
2017-03-27T06:41:29.554Z,18.42
2017-03-27T06:42:29.563Z,18.57
2017-03-27T06:43:29.559Z,18.58
2017-03-27T06:44:29.560Z,18.67
2017-03-27T06:45:29.565Z,18.82
2017-03-27T06:46:29.562Z,18.91
2017-03-27T06:47:29.566Z,19
2017-03-27T06:48:29.570Z,19.26
2017-03-27T06:49:29.570Z,19.33
2017-03-27T06:50:29.570Z,19.5
2017-03-27T06:51:29.572Z,19.48
2017-03-27T06:52:29.575Z,19.61
2017-03-27T06:53:29.578Z,19.62
2017-03-27T06:54:29.582Z,19.76
2017-03-27T06:55:29.588Z,19.84
2017-03-27T06:56:29.587Z,19.95
2017-03-27T06:57:29.588Z,20.03
2017-03-27T06:58:29.596Z,20.06
2017-03-27T06:59:29.600Z,20.28
2017-03-27T07:00:29.602Z,20.39
2017-03-27T07:01:29.603Z,20.51
2017-03-27T07:02:29.334Z,20.66
2017-03-27T07:03:29.617Z,20.7
2017-03-27T07:04:29.621Z,20.8
2017-03-27T07:05:29.623Z,21.04
2017-03-27T07:06:29.626Z,20.98
2017-03-27T07:07:29.629Z,21.09
2017-03-27T07:08:29.642Z,21.09
2017-03-27T07:09:29.649Z,21.09
2017-03-27T07:10:29.644Z,21.25
2017-03-27T07:11:29.650Z,21.4
2017-03-27T07:12:29.665Z,21.44
2017-03-27T07:13:29.665Z,21.54
2017-03-27T07:14:29.669Z,21.65
2017-03-27T07:15:29.679Z,21.8
2017-03-27T07:16:29.689Z,21.96
2017-03-27T07:17:29.685Z,22.03
2017-03-27T07:18:29.692Z,22.06
2017-03-27T07:19:29.697Z,22.18
2017-03-27T07:20:29.398Z,22.25
2017-03-27T07:21:29.720Z,22.3
2017-03-27T07:22:29.417Z,22.37
2017-03-27T07:23:29.726Z,22.45
2017-03-27T07:24:29.754Z,22.51
2017-03-27T07:25:29.736Z,22.51
2017-03-27T07:26:29.746Z,22.47
2017-03-27T07:27:29.753Z,22.57
2017-03-27T07:28:29.769Z,22.52
2017-03-27T07:29:29.767Z,22.51
2017-03-27T07:30:29.774Z,22.67
2017-03-27T07:31:29.783Z,22.64
2017-03-27T07:32:29.799Z,22.65
2017-03-27T07:33:29.799Z,22.72
2017-03-27T07:34:29.814Z,22.61
2017-03-27T07:35:29.814Z,22.47
2017-03-27T07:36:29.821Z,22.49
2017-03-27T07:37:29.833Z,22.51
2017-03-27T07:38:29.853Z,22.58
2017-03-27T07:39:29.853Z,22.64
2017-03-27T07:40:29.858Z,22.61
2017-03-27T07:41:29.564Z,22.67
2017-03-27T07:42:29.876Z,22.75
2017-03-27T07:43:29.890Z,22.76
2017-03-27T07:44:29.896Z,22.8
2017-03-27T07:45:29.605Z,22.77
2017-03-27T07:46:29.914Z,22.83
2017-03-27T07:47:29.620Z,22.88
2017-03-27T07:48:29.935Z,22.91
2017-03-27T07:49:29.947Z,22.98
2017-03-27T07:50:29.987Z,23.05
2017-03-27T07:51:29.961Z,22.97
2017-03-27T07:52:29.670Z,22.92
2017-03-27T07:53:29.982Z,22.94
2017-03-27T07:54:29.988Z,22.9
2017-03-27T07:55:29.698Z,22.83
2017-03-27T07:56:30.005Z,22.76
2017-03-27T07:57:30.013Z,22.72
2017-03-27T07:58:30.030Z,22.75
2017-03-27T07:59:30.034Z,22.65
2017-03-27T08:00:30.046Z,22.49
2017-03-27T08:01:30.045Z,22.46
2017-03-27T08:02:29.750Z,22.37
2017-03-27T08:03:30.066Z,22.22
2017-03-27T08:04:30.072Z,22.24
2017-03-27T08:05:30.075Z,22.07
2017-03-27T08:06:30.082Z,21.96
2017-03-27T08:07:29.790Z,21.94
2017-03-27T08:08:30.101Z,21.77
2017-03-27T08:09:30.107Z,21.65
2017-03-27T08:10:30.116Z,21.56
2017-03-27T08:11:30.127Z,21.4
2017-03-27T08:12:30.130Z,21.28
2017-03-27T08:13:30.138Z,21.14
2017-03-27T08:14:30.149Z,20.99
2017-03-27T08:15:30.151Z,20.73
2017-03-27T08:16:30.159Z,20.47
2017-03-27T08:17:30.167Z,20.2
2017-03-27T08:18:30.172Z,20.08
2017-03-27T08:19:30.181Z,19.96
2017-03-27T08:20:30.183Z,19.71
2017-03-27T08:21:30.188Z,19.54
2017-03-27T08:22:30.195Z,19.26
2017-03-27T08:23:30.204Z,18.99
2017-03-27T08:24:30.202Z,18.73
2017-03-27T08:25:30.209Z,18.44
2017-03-27T08:26:30.210Z,18.14
2017-03-27T08:27:30.210Z,17.92
2017-03-27T08:28:30.218Z,17.77
2017-03-27T08:29:30.226Z,17.56
2017-03-27T08:30:30.220Z,17.38
2017-03-27T08:31:30.223Z,17.14
2017-03-27T08:32:29.916Z,16.97
2017-03-27T08:33:30.221Z,16.81
2017-03-27T08:34:30.225Z,16.67
2017-03-27T08:35:30.220Z,16.52
2017-03-27T08:36:30.222Z,16.39
2017-03-27T08:37:30.214Z,16.33
2017-03-27T08:38:30.216Z,16.15
2017-03-27T08:39:30.215Z,16.01
2017-03-27T08:40:30.210Z,15.97
2017-03-27T08:41:30.459Z,15.76
2017-03-27T08:42:30.209Z,15.62
2017-03-27T08:43:30.208Z,15.51
2017-03-27T08:44:30.211Z,15.39
2017-03-27T08:45:30.205Z,15.43
2017-03-27T08:46:30.197Z,15.25
2017-03-27T08:47:30.194Z,15.21
2017-03-27T08:48:30.197Z,15.16
2017-03-27T08:49:30.189Z,15.03
2017-03-27T08:50:29.891Z,14.94
2017-03-27T08:51:30.215Z,14.88
2017-03-27T08:52:29.879Z,14.84
2017-03-27T08:53:29.874Z,14.81
2017-03-27T08:54:30.378Z,14.77
2017-03-27T08:55:30.168Z,14.73
2017-03-27T08:57:30.167Z,14.61
2017-03-27T08:58:30.161Z,14.68
2017-03-27T08:59:30.157Z,14.64
2017-03-27T09:00:29.852Z,14.64
2017-03-27T09:01:29.841Z,14.57
2017-03-27T09:02:30.144Z,14.65
2017-03-27T09:03:30.164Z,14.57
2017-03-27T09:04:30.139Z,14.58
2017-03-27T09:05:30.160Z,14.54
2017-03-27T09:06:30.127Z,14.6
2017-03-27T09:07:30.127Z,14.52
2017-03-27T09:08:30.137Z,14.5
2017-03-27T09:09:30.117Z,14.51
2017-03-27T09:10:30.116Z,14.45
2017-03-27T09:11:30.122Z,14.43
2017-03-27T09:12:30.110Z,14.42
2017-03-27T09:13:29.793Z,14.46
2017-03-27T09:14:30.098Z,14.4
2017-03-27T09:15:30.088Z,14.36
2017-03-27T09:16:29.782Z,14.35
2017-03-27T09:17:29.784Z,14.25
2017-03-27T09:18:30.085Z,14.27
2017-03-27T09:19:30.071Z,14.27
2017-03-27T09:20:30.066Z,14.37
2017-03-27T09:21:30.064Z,14.42
2017-03-27T09:22:30.070Z,14.37
2017-03-27T09:23:30.055Z,14.33
2017-03-27T09:24:30.054Z,14.28
2017-03-27T09:25:30.048Z,14.35
2017-03-27T09:26:30.041Z,14.35
2017-03-27T09:27:30.036Z,14.33
2017-03-27T09:28:30.035Z,14.33
2017-03-27T09:29:29.733Z,14.37
2017-03-27T09:30:30.021Z,14.33
2017-03-27T09:31:30.017Z,14.36
2017-03-27T09:32:30.017Z,14.39
2017-03-27T09:33:30.009Z,14.43
2017-03-27T09:34:30.008Z,14.37
2017-03-27T09:35:30.002Z,14.42
2017-03-27T09:36:29.997Z,14.46
2017-03-27T09:37:29.992Z,14.4
2017-03-27T09:38:29.990Z,14.51
2017-03-27T09:39:29.983Z,14.58
2017-03-27T09:40:29.978Z,14.47
2017-03-27T09:41:29.973Z,14.52
2017-03-27T09:42:29.972Z,14.47
2017-03-27T09:43:29.969Z,14.57
2017-03-27T09:44:29.962Z,14.51
2017-03-27T09:45:29.956Z,14.62
2017-03-27T09:46:29.952Z,14.5
2017-03-27T09:47:29.958Z,14.64
2017-03-27T09:48:29.947Z,14.58
2017-03-27T09:49:29.936Z,14.69
2017-03-27T09:50:29.932Z,14.65
2017-03-27T09:51:29.931Z,14.57
2017-03-27T09:52:29.924Z,14.62
2017-03-27T09:53:29.922Z,14.68
2017-03-27T09:54:29.916Z,14.7
2017-03-27T09:55:29.908Z,14.62
2017-03-27T09:56:29.907Z,14.69
2017-03-27T09:57:29.901Z,14.77
2017-03-27T09:58:29.903Z,14.77
2017-03-27T09:59:29.892Z,14.7
2017-03-27T10:00:29.887Z,14.73
2017-03-27T10:01:29.882Z,14.72
2017-03-27T10:02:29.878Z,14.68
2017-03-27T10:03:29.583Z,14.73
2017-03-27T10:04:29.871Z,14.83
2017-03-27T10:05:29.871Z,14.72
2017-03-27T10:06:29.869Z,14.68
2017-03-27T10:07:29.857Z,14.8
2017-03-27T10:08:29.853Z,14.83
2017-03-27T10:09:29.850Z,14.83
2017-03-27T10:10:29.842Z,14.8
2017-03-27T10:11:29.839Z,14.86
2017-03-27T10:12:29.834Z,14.89
2017-03-27T10:13:29.531Z,14.88
2017-03-27T10:14:29.829Z,14.94
2017-03-27T10:15:29.516Z,14.95
2017-03-27T10:16:29.847Z,14.94
2017-03-27T10:17:29.811Z,14.91
2017-03-27T10:18:29.506Z,14.98
2017-03-27T10:19:29.807Z,15.01
2017-03-27T10:20:29.802Z,15.02
2017-03-27T10:21:29.490Z,15.03
2017-03-27T10:22:29.792Z,15.06
2017-03-27T10:23:29.786Z,15.02
2017-03-27T10:24:29.799Z,15.06
2017-03-27T10:25:29.777Z,15.1
2017-03-27T10:26:29.795Z,15.13
2017-03-27T10:27:29.768Z,15.16
2017-03-27T10:28:29.460Z,15.13
2017-03-27T10:29:29.760Z,15.17
2017-03-27T10:30:29.759Z,15.21
2017-03-27T10:31:29.751Z,15.2
2017-03-27T10:32:29.743Z,15.16
2017-03-27T10:33:29.753Z,15.13
2017-03-27T10:34:29.435Z,15.19
2017-03-27T10:35:29.730Z,15.25
2017-03-27T10:36:29.978Z,15.19
2017-03-27T10:37:29.738Z,15.2
2017-03-27T10:38:29.722Z,15.34
2017-03-27T10:39:29.736Z,15.35
2017-03-27T10:40:29.718Z,15.34
2017-03-27T10:41:29.708Z,15.29
2017-03-27T10:42:29.701Z,15.31
2017-03-27T10:43:29.402Z,15.31
2017-03-27T10:44:29.693Z,15.39
2017-03-27T10:45:29.700Z,15.31
2017-03-27T10:46:29.682Z,15.38
2017-03-27T10:47:29.379Z,15.35
2017-03-27T10:48:29.679Z,15.34
2017-03-27T10:49:29.675Z,15.36
2017-03-27T10:50:29.668Z,15.41
2017-03-27T10:51:29.666Z,15.46
2017-03-27T10:52:29.664Z,15.44
2017-03-27T10:53:29.656Z,15.41
2017-03-27T10:54:29.656Z,15.35
2017-03-27T10:55:29.648Z,15.5
2017-03-27T10:56:29.644Z,15.44
2017-03-27T10:57:29.639Z,15.43
2017-03-27T10:58:29.639Z,15.43
2017-03-27T10:59:29.636Z,15.49
2017-03-27T11:00:29.629Z,15.41
2017-03-27T11:01:29.622Z,15.41
2017-03-27T11:02:29.617Z,15.39
2017-03-27T11:03:29.618Z,15.43
2017-03-27T11:04:29.611Z,15.43
2017-03-27T11:05:29.607Z,15.47
2017-03-27T11:06:29.601Z,15.38
2017-03-27T11:07:29.604Z,15.5
2017-03-27T11:08:29.595Z,15.5
2017-03-27T11:09:29.596Z,15.54
2017-03-27T11:10:29.585Z,15.51
2017-03-27T11:11:29.580Z,15.43
2017-03-27T11:12:29.587Z,15.46
2017-03-27T11:13:29.573Z,15.43
2017-03-27T11:14:29.605Z,15.44
2017-03-27T11:15:29.258Z,15.39
2017-03-27T11:16:29.256Z,15.5
2017-03-27T11:17:29.257Z,15.51
2017-03-27T11:18:29.552Z,15.43
2017-03-27T11:19:29.556Z,15.5
2017-03-27T11:20:29.543Z,15.5
2017-03-27T11:21:29.536Z,15.56
2017-03-27T11:22:29.540Z,15.56
2017-03-27T11:23:29.230Z,15.51
2017-03-27T11:24:29.528Z,15.53
2017-03-27T11:25:29.526Z,15.62
2017-03-27T11:26:29.517Z,15.64
2017-03-27T11:27:29.513Z,15.51
2017-03-27T11:28:29.517Z,15.57
2017-03-27T11:29:29.506Z,15.57
2017-03-27T11:30:29.195Z,15.67
2017-03-27T11:31:29.501Z,15.59
2017-03-27T11:32:29.492Z,15.6
2017-03-27T11:33:29.491Z,15.62
2017-03-27T11:34:29.483Z,15.71
2017-03-27T11:35:29.177Z,15.65
2017-03-27T11:36:29.479Z,15.57
2017-03-27T11:37:29.474Z,15.65
2017-03-27T11:38:29.473Z,15.6
2017-03-27T11:39:29.467Z,15.65
2017-03-27T11:40:29.157Z,15.59
2017-03-27T11:41:29.455Z,15.69
2017-03-27T11:42:29.456Z,15.69
2017-03-27T11:43:29.447Z,15.71
2017-03-27T11:44:29.472Z,15.67
2017-03-27T11:45:29.455Z,15.67
2017-03-27T11:46:29.448Z,15.65
2017-03-27T11:47:29.128Z,15.76
2017-03-27T11:48:28.828Z,15.71
2017-03-27T11:49:29.118Z,15.8
2017-03-27T11:50:28.815Z,15.86
2017-03-27T11:51:29.129Z,15.8
2017-03-27T11:52:29.116Z,15.87
2017-03-27T11:53:29.101Z,15.94
2017-03-27T11:54:29.100Z,15.89
2017-03-27T11:55:29.427Z,15.93
2017-03-27T11:56:29.405Z,15.86
2017-03-27T11:57:29.086Z,15.94
2017-03-27T11:58:29.409Z,16
2017-03-27T11:59:29.385Z,15.96
2017-03-27T12:00:29.081Z,15.96
2017-03-27T12:01:29.426Z,16.01
2017-03-27T12:02:29.065Z,15.97
2017-03-27T12:03:29.399Z,15.97
2017-03-27T12:04:29.377Z,16
2017-03-27T12:05:29.356Z,16
2017-03-27T12:06:28.749Z,15.89
2017-03-27T12:07:29.347Z,16.02
2017-03-27T12:08:29.349Z,15.97
2017-03-27T12:09:29.343Z,16.05
2017-03-27T12:10:29.337Z,16.04
2017-03-27T12:11:29.332Z,15.97
2017-03-27T12:12:29.025Z,16.04
2017-03-27T12:13:29.327Z,16.04
2017-03-27T12:14:29.329Z,15.97
2017-03-27T12:15:29.338Z,15.97
2017-03-27T12:16:29.019Z,16.01
2017-03-27T12:17:29.308Z,16.01
2017-03-27T12:18:29.328Z,16.02
2017-03-27T12:19:29.299Z,16.02
2017-03-27T12:20:28.689Z,16.05
2017-03-27T12:21:28.989Z,15.97
2017-03-27T12:22:29.295Z,16.02
2017-03-27T12:23:29.284Z,15.93
2017-03-27T12:24:29.280Z,15.96
2017-03-27T12:25:29.282Z,16.07
2017-03-27T12:26:29.341Z,16.04
2017-03-27T12:27:28.962Z,16.08
2017-03-27T12:28:29.284Z,16.08
2017-03-27T12:29:29.260Z,16.05
2017-03-27T12:30:29.263Z,16.12
2017-03-27T12:31:28.645Z,16.08
2017-03-27T12:32:28.970Z,16.14
2017-03-27T12:33:29.246Z,16.14
2017-03-27T12:34:29.285Z,16.14
2017-03-27T12:35:29.269Z,16.07
2017-03-27T12:36:28.624Z,16.12
2017-03-27T12:37:29.228Z,16.09
2017-03-27T12:38:29.261Z,16.14
2017-03-27T12:39:28.634Z,16.15
2017-03-27T12:40:29.244Z,16.14
2017-03-27T12:41:29.219Z,16.2
2017-03-27T12:42:28.603Z,16.17
2017-03-27T12:43:28.914Z,16.12
2017-03-27T12:44:29.199Z,16.09
2017-03-27T12:45:28.914Z,16.09
2017-03-27T12:46:29.219Z,16.15
2017-03-27T12:47:28.895Z,16.21
2017-03-27T12:48:29.231Z,16.08
2017-03-27T12:49:29.214Z,16.2
2017-03-27T12:50:29.178Z,16.2
2017-03-27T12:51:28.869Z,16.2
2017-03-27T12:52:29.175Z,16.23
2017-03-27T12:53:28.879Z,16.21
2017-03-27T12:54:29.163Z,16.23
2017-03-27T12:55:29.164Z,16.21
2017-03-27T12:56:29.154Z,16.25
2017-03-27T12:57:28.875Z,16.21
2017-03-27T12:58:29.173Z,16.23
2017-03-27T12:59:28.840Z,16.2
2017-03-27T13:00:28.837Z,16.25
2017-03-27T13:01:28.841Z,16.15
2017-03-27T13:02:28.826Z,16.21
2017-03-27T13:03:29.127Z,16.17
2017-03-27T13:04:29.127Z,16.17
2017-03-27T13:05:29.122Z,16.09
2017-03-27T13:06:28.816Z,16.2
2017-03-27T13:07:29.119Z,16.21